Terminal Aerodrome Forecast
Issued by NWS

Home | Current Version | Previous Version | Text Only | Print | Product List | Glossary On
Versions: 1 2 3 4 5 6 7 8 9 10 11 12 13
000
FTAK31 PAFA 251125
TAFAUN
TAF
PAUN 251125Z 2512/2612 VRB03KT P6SM SKC
     FM252200 35013KT P6SM FEW120
     FM260600 03011KT P6SM SKC=

USA.gov is the U.S. government's official web portal to all federal, state and local government web resources and services.